Time;durP1;ratioP1;P1;durP2;ratioP2;P2;SDS_P1;SDS_P2;PMS_P1;PMS_P2;Temp;Humidity;BMP_temperature;BMP_pressure;BME280_temperature;BME280_humidity;BME280_pressure;Samples;Min_cycle;Max_cycle;Signal;HPM_P1;HPM_P2
2022/09/03 00:01:33;;;;;;;1.93;1.83;;;17.00;1.00;;;;;;4993283;28;20556;-57
2022/09/03 00:04:05;;;;;;;2.30;1.70;;;17.10;1.00;;;;;;4984798;28;20460;-57
2022/09/03 00:06:38;;;;;;;1.57;1.40;;;17.10;1.00;;;;;;4994255;28;20958;-57
2022/09/03 00:09:10;;;;;;;8.00;1.77;;;17.00;1.00;;;;;;5002410;28;20454;-57
2022/09/03 00:11:52;;;;;;;2.67;1.97;;;17.10;1.00;;;;;;4993115;28;21004;-57
2022/09/03 00:14:31;;;;;;;1.83;1.63;;;17.00;1.00;;;;;;4990899;28;20448;-57
2022/09/03 00:17:11;;;;;;;2.83;2.53;;;17.00;1.00;;;;;;4993629;28;20484;-57
2022/09/03 00:19:53;;;;;;;4.33;2.00;;;17.10;1.00;;;;;;4996980;28;20480;-57
2022/09/03 00:22:25;;;;;;;2.60;2.30;;;17.10;1.00;;;;;;4994242;28;20533;-57
2022/09/03 00:24:52;;;;;;;4.53;1.97;;;17.00;1.00;;;;;;5000063;28;20503;-58
2022/09/03 00:27:24;;;;;;;3.30;1.93;;;17.00;1.00;;;;;;4995227;28;20487;-57
2022/09/03 00:30:04;;;;;;;3.03;1.87;;;16.90;1.00;;;;;;4996068;28;20450;-58
2022/09/03 00:32:37;;;;;;;3.90;2.00;;;16.80;1.00;;;;;;4995969;28;20444;-57
2022/09/03 00:35:09;;;;;;;4.43;1.93;;;16.70;1.00;;;;;;4994739;28;20457;-57
2022/09/03 00:37:35;;;;;;;3.37;2.00;;;16.60;1.00;;;;;;4997501;28;20450;-57
2022/09/03 00:40:02;;;;;;;2.63;1.83;;;16.50;1.00;;;;;;4994513;28;20942;-57
2022/09/03 00:42:53;;;;;;;5.10;2.00;;;16.40;1.00;;;;;;4994578;28;20194;-57
2022/09/03 00:45:48;;;;;;;2.90;1.60;;;16.50;1.00;;;;;;4989324;28;20470;-57
2022/09/03 00:48:25;;;;;;;3.57;1.90;;;16.30;1.00;;;;;;5001302;28;20422;-57
2022/09/03 00:51:00;;;;;;;3.53;1.87;;;16.30;1.00;;;;;;5001841;28;20896;-58
2022/09/03 00:53:37;;;;;;;4.63;1.60;;;16.20;1.00;;;;;;4991470;28;20442;-57
2022/09/03 00:56:31;;;;;;;4.20;2.00;;;16.10;1.00;;;;;;4996787;28;20926;-57
2022/09/03 00:59:21;;;;;;;4.73;2.00;;;16.10;1.00;;;;;;4988354;28;20450;-56
2022/09/03 01:01:52;;;;;;;2.30;2.10;;;16.00;1.00;;;;;;4996642;28;20982;-57
2022/09/03 01:04:58;;;;;;;2.50;1.73;;;16.00;1.00;;;;;;4994324;28;20514;-57
2022/09/03 01:07:45;;;;;;;4.37;1.80;;;15.90;1.00;;;;;;4991302;28;20440;-57
2022/09/03 01:10:37;;;;;;;3.17;1.90;;;15.90;1.00;;;;;;4989805;28;20514;-57
2022/09/03 01:13:13;;;;;;;2.87;2.00;;;15.90;1.00;;;;;;4995185;28;20452;-58
2022/09/03 01:15:38;;;;;;;3.00;1.73;;;15.90;1.00;;;;;;4995576;28;20587;-57
2022/09/03 01:18:24;;;;;;;2.07;1.90;;;15.90;1.00;;;;;;4999630;28;20523;-57
2022/09/03 01:21:02;;;;;;;4.50;2.03;;;15.80;1.00;;;;;;4974470;28;20296;-57
2022/09/03 01:23:53;;;;;;;1.97;1.87;;;15.80;1.00;;;;;;4994125;28;20419;-58
2022/09/03 01:26:33;;;;;;;1.93;1.73;;;15.80;1.00;;;;;;4993027;28;20453;-57
2022/09/03 01:30:06;;;;;;;;;;;;;;;;;;;;;
2022/09/03 01:32:47;;;;;;;4.23;1.80;;;15.70;1.00;;;;;;4979316;28;20465;-57
2022/09/03 01:35:37;;;;;;;3.47;1.70;;;15.70;1.00;;;;;;4993971;28;20978;-58
2022/09/03 01:38:36;;;;;;;2.53;2.33;;;15.60;1.00;;;;;;4992975;28;21037;-57
2022/09/03 01:44:22;;;;;;;2.90;2.20;;;15.60;1.00;;;;;;4994363;28;20480;-57
2022/09/03 01:46:57;;;;;;;3.03;2.07;;;15.60;1.00;;;;;;5001025;28;20968;-57
2022/09/03 01:49:38;;;;;;;2.20;2.00;;;15.50;1.00;;;;;;5000329;28;20445;-55
2022/09/03 01:52:16;;;;;;;5.00;2.30;;;15.40;1.00;;;;;;4999828;28;20440;-58
2022/09/03 01:55:20;;;;;;;4.07;2.27;;;15.50;1.00;;;;;;4998147;28;20455;-57
2022/09/03 01:57:49;;;;;;;2.63;2.43;;;;;;;;;;4992754;28;20430;-56
2022/09/03 02:00:19;;;;;;;1.80;1.70;;;15.40;1.00;;;;;;4996024;28;20521;-56
2022/09/03 02:02:46;;;;;;;3.73;2.30;;;15.40;1.00;;;;;;4993725;28;20488;-57
2022/09/03 02:05:42;;;;;;;2.20;2.00;;;15.30;1.00;;;;;;5004015;28;20447;-57
2022/09/03 02:08:09;;;;;;;2.63;2.20;;;15.20;1.00;;;;;;4988630;28;20453;-57
2022/09/03 02:10:54;;;;;;;3.20;1.70;;;15.30;1.00;;;;;;4999675;28;20946;-57
2022/09/03 02:13:28;;;;;;;5.33;2.17;;;15.30;1.00;;;;;;4994708;28;20445;-57
2022/09/03 02:15:59;;;;;;;3.67;2.33;;;15.20;1.00;;;;;;4999629;28;20446;-57
2022/09/03 02:18:30;;;;;;;2.30;1.80;;;15.20;1.00;;;;;;5003349;28;20946;-57
2022/09/03 02:20:57;;;;;;;2.47;2.27;;;15.10;1.00;;;;;;4985720;28;21043;-57
2022/09/03 02:23:24;;;;;;;2.73;2.10;;;15.10;1.00;;;;;;4994582;28;20457;-57
2022/09/03 02:25:59;;;;;;;4.40;2.17;;;15.10;1.00;;;;;;4998348;28;20458;-56
2022/09/03 02:28:27;;;;;;;2.37;2.17;;;15.10;1.00;;;;;;4999359;28;20456;-58
2022/09/03 02:30:53;;;;;;;3.30;2.30;;;15.10;1.00;;;;;;4996899;28;20448;-56
2022/09/03 02:33:19;;;;;;;4.87;2.50;;;15.00;1.00;;;;;;4998487;28;20957;-57
2022/09/03 02:35:45;;;;;;;1.90;1.60;;;14.90;1.00;;;;;;5003493;28;20506;-56
2022/09/03 02:38:20;;;;;;;3.10;2.30;;;15.00;1.00;;;;;;4997768;28;20190;-57
2022/09/03 02:40:46;;;;;;;2.63;1.93;;;14.90;1.00;;;;;;4999573;28;20475;-57
2022/09/03 02:43:27;;;;;;;2.40;2.20;;;14.90;1.00;;;;;;4994846;28;20501;-56
2022/09/03 02:46:00;;;;;;;3.23;2.20;;;14.80;1.00;;;;;;5001621;28;20527;-57
2022/09/03 02:48:26;;;;;;;2.80;2.50;;;14.90;1.00;;;;;;4997687;28;20814;-57
2022/09/03 02:50:52;;;;;;;2.20;2.00;;;14.80;1.00;;;;;;5004357;28;20527;-57
2022/09/03 02:53:17;;;;;;;2.30;1.97;;;14.90;1.00;;;;;;4998445;28;21035;-57
2022/09/03 02:55:43;;;;;;;2.07;1.87;;;14.90;1.00;;;;;;5002655;28;20700;-56
2022/09/03 02:58:09;;;;;;;2.27;2.07;;;14.80;1.00;;;;;;4994397;28;20183;-57
2022/09/03 03:00:35;;;;;;;3.40;2.53;;;14.80;1.00;;;;;;5002357;28;20210;-57
2022/09/03 03:03:04;;;;;;;3.27;2.40;;;15.90;1.00;;;;;;5001348;28;20181;-57
2022/09/03 03:05:45;;;;;;;2.80;2.43;;;14.80;1.00;;;;;;4993813;28;20460;-57
2022/09/03 03:08:13;;;;;;;2.07;1.80;;;14.80;1.00;;;;;;5002616;28;20448;-57
2022/09/03 03:10:42;;;;;;;4.80;1.90;;;14.80;1.00;;;;;;5001127;28;20516;-58
2022/09/03 03:13:08;;;;;;;2.67;2.47;;;14.70;1.00;;;;;;5001267;28;20503;-57
2022/09/03 03:15:34;;;;;;;3.97;2.37;;;14.70;1.00;;;;;;4998904;28;20477;-57
2022/09/03 03:17:59;;;;;;;4.33;2.03;;;14.80;1.00;;;;;;5006205;28;20524;-57
2022/09/03 03:20:25;;;;;;;2.60;2.00;;;14.70;1.00;;;;;;4991044;28;20225;-57
2022/09/03 03:22:50;;;;;;;2.60;2.00;;;14.70;1.00;;;;;;5002583;28;20190;-56
2022/09/03 03:25:16;;;;;;;2.67;2.47;;;14.60;1.00;;;;;;4998108;28;20220;-57
2022/09/03 03:27:42;;;;;;;2.33;2.13;;;14.60;1.00;;;;;;4993551;28;20277;-57
2022/09/03 03:30:09;;;;;;;3.40;2.50;;;14.60;1.00;;;;;;5000415;28;20270;-58
2022/09/03 03:32:35;;;;;;;2.77;2.47;;;14.60;1.00;;;;;;5002261;28;20191;-57
2022/09/03 03:35:01;;;;;;;3.70;2.40;;;14.60;1.00;;;;;;4994732;28;20451;-57
2022/09/03 03:37:27;;;;;;;3.37;2.17;;;14.50;1.00;;;;;;4996091;28;20515;-56
2022/09/03 03:39:52;;;;;;;2.60;2.40;;;14.50;1.00;;;;;;4992981;28;20228;-57
2022/09/03 03:42:18;;;;;;;2.90;1.90;;;14.50;1.00;;;;;;4999083;28;20714;-57
2022/09/03 03:44:43;;;;;;;2.63;2.10;;;14.40;1.00;;;;;;4971618;28;20213;-56
2022/09/03 03:47:09;;;;;;;3.20;2.30;;;14.40;1.00;;;;;;5007281;28;20181;-57
2022/09/03 03:49:35;;;;;;;4.80;2.17;;;14.30;1.00;;;;;;4999061;28;20666;-56
2022/09/03 03:52:02;;;;;;;2.03;1.80;;;14.40;1.00;;;;;;5000547;28;20197;-57
2022/09/03 03:54:27;;;;;;;4.60;2.10;;;14.30;1.00;;;;;;5004493;28;20634;-56
2022/09/03 03:56:53;;;;;;;4.20;2.30;;;14.30;1.00;;;;;;4995166;28;20413;-57
2022/09/03 03:59:18;;;;;;;2.77;2.37;;;14.40;1.00;;;;;;4997125;28;20201;-57
2022/09/03 04:01:44;;;;;;;3.27;2.43;;;14.30;1.00;;;;;;5003672;28;20276;-56
2022/09/03 04:04:09;;;;;;;3.27;2.97;;;14.20;1.00;;;;;;4997074;28;20183;-57
2022/09/03 04:06:35;;;;;;;2.40;1.90;;;14.20;1.00;;;;;;4995275;28;20204;-57
2022/09/03 04:09:00;;;;;;;2.77;2.20;;;14.20;1.00;;;;;;5006955;28;20187;-57
2022/09/03 04:11:26;;;;;;;2.77;2.57;;;14.20;1.00;;;;;;5002005;28;20226;-56
2022/09/03 04:13:52;;;;;;;3.90;2.20;;;14.10;1.00;;;;;;4985961;28;20190;-58
2022/09/03 04:16:21;;;;;;;2.80;2.60;;;14.10;1.00;;;;;;4996196;28;20185;-57
2022/09/03 04:18:48;;;;;;;4.43;2.13;;;14.10;1.00;;;;;;4990650;28;20469;-57
2022/09/03 04:21:16;;;;;;;3.60;2.30;;;14.00;1.00;;;;;;4983321;28;20477;-57
2022/09/03 04:23:44;;;;;;;3.47;2.40;;;14.00;1.00;;;;;;4995812;28;20461;-57
2022/09/03 04:26:13;;;;;;;2.60;2.33;;;14.00;1.00;;;;;;5001230;28;20510;-57
2022/09/03 04:28:39;;;;;;;2.30;2.13;;;14.00;1.00;;;;;;4995859;28;20453;-57
2022/09/03 04:31:09;;;;;;;6.40;3.10;;;14.00;1.00;;;;;;4999605;28;20845;-56
2022/09/03 04:33:39;;;;;;;2.87;2.53;;;14.00;1.00;;;;;;5001826;28;20854;-56
2022/09/03 04:36:15;;;;;;;2.63;1.90;;;14.00;1.00;;;;;;4992435;28;20458;-56
2022/09/03 04:38:43;;;;;;;3.57;2.50;;;14.00;1.00;;;;;;5002093;28;20487;-56
2022/09/03 04:43:34;;;;;;;3.00;2.80;;;13.90;1.00;;;;;;4988617;28;20449;-56
2022/09/03 04:46:03;;;;;;;3.50;2.33;;;13.90;1.00;;;;;;4994119;28;20187;-57
2022/09/03 04:48:30;;;;;;;3.87;2.40;;;13.80;1.00;;;;;;4999734;28;20524;-57
2022/09/03 04:51:17;;;;;;;3.13;2.33;;;13.80;1.00;;;;;;4996370;28;20452;-57
2022/09/03 04:53:45;;;;;;;3.83;2.37;;;13.80;1.00;;;;;;5001307;28;20487;-57
2022/09/03 04:56:22;;;;;;;2.03;1.93;;;13.80;1.00;;;;;;4992695;28;20458;-57
2022/09/03 04:58:53;;;;;;;2.60;2.40;;;13.80;1.00;;;;;;4993165;28;20451;-57
2022/09/03 05:01:20;;;;;;;3.90;2.57;;;13.90;1.00;;;;;;4992538;28;20551;-57
2022/09/03 05:03:47;;;;;;;2.80;2.60;;;13.80;1.00;;;;;;4993052;28;20796;-56
2022/09/03 05:06:13;;;;;;;4.17;2.53;;;13.80;1.00;;;;;;5002317;28;20764;-57
2022/09/03 05:08:39;;;;;;;3.07;2.77;;;13.80;1.00;;;;;;4999426;28;20507;-57
2022/09/03 05:11:10;;;;;;;2.70;2.50;;;13.80;1.00;;;;;;5001735;28;20933;-57
2022/09/03 05:13:36;;;;;;;3.50;2.53;;;13.90;1.00;;;;;;4996406;28;20178;-58
2022/09/03 05:16:11;;;;;;;3.00;2.80;;;13.90;1.00;;;;;;4993832;28;20504;-57
2022/09/03 05:18:38;;;;;;;3.20;2.53;;;14.00;1.00;;;;;;4990843;28;20455;-57
2022/09/03 05:21:17;;;;;;;4.93;2.80;;;14.00;1.00;;;;;;4997251;28;20485;-58
2022/09/03 05:23:45;;;;;;;2.83;2.60;;;14.00;1.00;;;;;;4997814;28;20955;-57
2022/09/03 05:26:13;;;;;;;3.90;3.30;;;14.10;1.00;;;;;;4998830;28;20435;-57
2022/09/03 05:28:40;;;;;;;3.10;2.20;;;14.30;1.00;;;;;;4998183;28;20467;-57
2022/09/03 05:31:12;;;;;;;2.47;2.30;;;14.40;1.00;;;;;;4995397;28;20460;-56
2022/09/03 05:33:46;;;;;;;4.83;3.00;;;14.50;1.00;;;;;;4998255;28;20511;-57
2022/09/03 05:36:14;;;;;;;2.70;2.50;;;14.60;1.00;;;;;;4999972;28;20451;-57
2022/09/03 05:38:40;;;;;;;2.97;2.70;;;14.70;1.00;;;;;;4997967;28;20419;-56
2022/09/03 05:41:12;;;;;;;3.13;2.83;;;14.70;1.00;;;;;;5001192;28;20510;-56
2022/09/03 05:43:39;;;;;;;2.63;2.40;;;14.60;1.00;;;;;;4991793;28;21516;-57
2022/09/03 05:46:30;;;;;;;4.13;2.73;;;14.70;1.00;;;;;;5002709;28;20452;-57
2022/09/03 05:49:00;;;;;;;3.90;2.40;;;14.90;1.00;;;;;;4987135;28;20942;-57
2022/09/03 05:51:27;;;;;;;5.03;3.00;;;14.90;1.00;;;;;;4996631;28;20528;-57
2022/09/03 05:53:54;;;;;;;2.83;2.63;;;15.00;1.00;;;;;;4998063;28;20946;-56
2022/09/03 05:56:21;;;;;;;3.80;2.60;;;15.10;1.00;;;;;;4997475;28;20448;-57
2022/09/03 05:58:50;;;;;;;3.47;2.33;;;15.10;1.00;;;;;;5002759;28;20595;-57
2022/09/03 06:01:41;;;;;;;4.63;2.60;;;15.20;1.00;;;;;;5004625;28;20944;-57
2022/09/03 06:04:12;;;;;;;2.63;2.40;;;15.30;1.00;;;;;;4997296;28;20453;-57
2022/09/03 06:06:42;;;;;;;3.07;2.73;;;15.40;1.00;;;;;;5004832;28;20443;-58
2022/09/03 06:09:10;;;;;;;5.40;2.87;;;15.40;1.00;;;;;;4997468;28;20440;-58
2022/09/03 06:11:37;;;;;;;4.73;3.47;;;15.60;1.00;;;;;;4999462;28;20464;-58
2022/09/03 06:14:05;;;;;;;2.77;2.57;;;15.80;1.00;;;;;;4997056;28;20928;-57
2022/09/03 06:16:34;;;;;;;3.10;2.80;;;16.00;1.00;;;;;;5000469;28;20460;-57
2022/09/03 06:18:59;;;;;;;3.23;2.93;;;16.20;1.00;;;;;;4999893;28;20473;-58
2022/09/03 06:21:25;;;;;;;2.93;2.73;;;16.30;1.00;;;;;;5004359;28;20481;-58
2022/09/03 06:23:55;;;;;;;2.83;2.60;;;16.30;1.00;;;;;;5003861;28;20210;-57
2022/09/03 06:26:21;;;;;;;4.10;2.83;;;16.40;1.00;;;;;;5006223;28;20458;-57
2022/09/03 06:28:48;;;;;;;2.83;2.30;;;16.40;1.00;;;;;;4998103;28;20496;-58
2022/09/03 06:31:16;;;;;;;3.30;2.50;;;16.40;1.00;;;;;;4998953;28;20449;-57
2022/09/03 06:33:42;;;;;;;3.20;2.33;;;16.50;1.00;;;;;;4996267;28;20448;-58
2022/09/03 06:36:15;;;;;;;4.10;3.23;;;16.80;1.00;;;;;;4996600;28;20446;-58
2022/09/03 06:38:42;;;;;;;3.20;2.50;;;16.90;1.00;;;;;;5002878;28;20456;-58
2022/09/03 06:41:14;;;;;;;2.90;2.30;;;16.90;1.00;;;;;;4990630;28;20469;-59
2022/09/03 06:43:41;;;;;;;3.90;2.40;;;17.00;1.00;;;;;;4988985;28;20412;-59
2022/09/03 06:46:10;;;;;;;3.60;3.10;;;17.10;1.00;;;;;;4989317;28;20445;-58
2022/09/03 06:48:38;;;;;;;2.87;2.10;;;17.20;1.00;;;;;;4995098;28;20451;-59
2022/09/03 06:51:11;;;;;;;2.80;2.50;;;17.30;1.00;;;;;;4994740;28;20427;-57
2022/09/03 06:53:39;;;;;;;4.30;2.30;;;17.30;1.00;;;;;;4995976;28;20453;-56
2022/09/03 06:56:14;;;;;;;5.50;2.30;;;17.50;1.00;;;;;;4995437;28;20520;-57
2022/09/03 06:58:45;;;;;;;2.83;2.40;;;17.40;1.00;;;;;;5000191;28;20459;-57
2022/09/03 07:01:16;;;;;;;2.60;2.40;;;17.70;1.00;;;;;;5001330;28;20523;-57
2022/09/03 07:03:43;;;;;;;2.10;1.90;;;17.90;1.00;;;;;;4990993;28;20724;-57
2022/09/03 07:06:12;;;;;;;5.10;2.37;;;18.00;1.00;;;;;;4998172;28;20510;-56
2022/09/03 07:08:37;;;;;;;2.53;2.27;;;18.20;1.00;;;;;;5004962;28;20449;-57
2022/09/03 07:11:13;;;;;;;2.80;2.30;;;18.40;1.00;;;;;;4990109;28;20456;-57
2022/09/03 07:13:42;;;;;;;3.13;2.83;;;18.50;1.00;;;;;;4986995;28;20741;-57
2022/09/03 07:16:16;;;;;;;5.03;2.37;;;18.30;1.00;;;;;;4993741;28;20970;-57
2022/09/03 07:18:42;;;;;;;4.30;2.17;;;18.20;1.00;;;;;;4991929;28;20779;-57
2022/09/03 07:21:19;;;;;;;2.67;2.30;;;18.20;1.00;;;;;;4993921;28;20470;-57
2022/09/03 07:23:45;;;;;;;7.40;2.73;;;18.30;1.00;;;;;;5002405;28;20472;-57
2022/09/03 07:26:16;;;;;;;4.37;2.17;;;18.40;1.00;;;;;;4997432;28;20427;-58
2022/09/03 07:28:44;;;;;;;2.23;2.03;;;18.70;1.00;;;;;;4991244;28;20420;-58
2022/09/03 07:31:18;;;;;;;3.37;1.90;;;18.70;1.00;;;;;;4992950;28;21044;-58
2022/09/03 07:33:44;;;;;;;2.57;2.10;;;18.90;1.00;;;;;;4990172;28;20477;-56
2022/09/03 07:36:15;;;;;;;1.90;1.80;;;19.20;1.00;;;;;;4997393;28;20789;-58
2022/09/03 07:38:43;;;;;;;2.67;2.47;;;19.40;1.00;;;;;;4997539;28;21646;-57
2022/09/03 07:41:10;;;;;;;2.20;2.00;;;19.60;1.00;;;;;;4996151;28;20560;-58
2022/09/03 07:43:39;;;;;;;2.20;1.80;;;19.60;1.00;;;;;;4993415;28;20858;-57
2022/09/03 07:46:14;;;;;;;4.30;1.93;;;19.80;1.00;;;;;;4993490;28;20577;-58
2022/09/03 07:48:40;;;;;;;2.10;1.90;;;20.00;1.00;;;;;;4992748;28;20444;-57
2022/09/03 07:51:09;;;;;;;2.63;2.37;;;20.10;1.00;;;;;;4994717;28;20776;-58
2022/09/03 07:53:35;;;;;;;4.37;2.07;;;20.30;1.00;;;;;;4993164;28;20464;-57
2022/09/03 07:56:11;;;;;;;2.20;2.00;;;20.40;1.00;;;;;;4996764;28;20482;-59
2022/09/03 07:58:38;;;;;;;4.73;2.00;;;20.40;1.00;;;;;;4994031;28;20816;-57
2022/09/03 08:01:12;;;;;;;3.50;2.00;;;20.40;1.00;;;;;;5001343;28;20474;-57
2022/09/03 08:03:41;;;;;;;5.80;1.90;;;20.60;1.00;;;;;;4991969;28;20445;-60
2022/09/03 08:06:10;;;;;;;2.20;2.00;;;20.80;1.00;;;;;;4990436;28;20478;-57
2022/09/03 08:08:36;;;;;;;2.03;1.83;;;20.90;1.00;;;;;;4990092;28;20442;-57
2022/09/03 08:11:22;;;;;;;2.00;1.80;;;20.90;1.00;;;;;;4998811;28;20444;-57
2022/09/03 08:14:00;;;;;;;3.73;2.07;;;20.80;1.00;;;;;;4974711;28;20419;-57
2022/09/03 08:16:26;;;;;;;2.83;1.93;;;21.00;1.00;;;;;;4990687;28;20446;-58
2022/09/03 08:18:52;;;;;;;4.70;2.50;;;21.10;1.00;;;;;;4997506;28;20968;-58
2022/09/03 08:21:18;;;;;;;3.63;2.10;;;21.30;1.00;;;;;;4969836;28;20469;-58
2022/09/03 08:23:49;;;;;;;1.97;1.73;;;21.50;1.00;;;;;;4991207;28;20438;-58
2022/09/03 08:26:17;;;;;;;2.60;2.10;;;21.60;1.00;;;;;;4999592;28;20506;-59
2022/09/03 08:28:43;;;;;;;2.03;1.67;;;21.70;1.00;;;;;;4995734;28;20445;-58
2022/09/03 08:31:18;;;;;;;2.53;2.03;;;21.90;1.00;;;;;;4991595;28;20985;-59
2022/09/03 08:33:47;;;;;;;2.27;1.87;;;22.10;1.00;;;;;;4985335;28;20451;-58
2022/09/03 08:36:16;;;;;;;4.00;2.23;;;22.10;1.00;;;;;;4986827;28;20808;-59
2022/09/03 08:38:45;;;;;;;2.27;2.07;;;22.20;1.00;;;;;;4996230;28;20994;-58
2022/09/03 08:41:42;;;;;;;3.77;2.47;;;22.10;1.00;;;;;;4991899;28;20488;-58
2022/09/03 08:44:18;;;;;;;3.60;1.60;;;22.10;1.00;;;;;;4963606;28;20913;-58
2022/09/03 08:46:53;;;;;;;4.00;1.40;;;22.20;1.00;;;;;;4991610;28;20420;-57
2022/09/03 08:49:37;;;;;;;3.07;1.90;;;22.20;1.00;;;;;;4991693;28;20495;-57
2022/09/03 08:52:16;;;;;;;4.70;1.97;;;22.40;1.00;;;;;;4993501;28;20423;-57
2022/09/03 08:54:42;;;;;;;4.67;1.93;;;22.80;1.00;;;;;;4994196;28;20528;-57
2022/09/03 08:57:09;;;;;;;2.73;1.83;;;22.90;1.00;;;;;;4996783;28;20975;-58
2022/09/03 08:59:36;;;;;;;5.20;1.87;;;23.10;1.00;;;;;;4997081;28;20436;-58
2022/09/03 09:02:45;;;;;;;2.87;1.70;;;23.10;1.00;;;;;;4993521;28;20506;-58
2022/09/03 09:05:15;;;;;;;3.50;1.80;;;23.10;1.00;;;;;;4992360;28;21103;-58
2022/09/03 09:07:52;;;;;;;4.00;1.50;;;23.10;1.00;;;;;;4991739;28;20509;-58
2022/09/03 09:10:23;;;;;;;4.07;2.00;;;23.20;1.00;;;;;;4992103;28;20421;-57
2022/09/03 09:13:07;;;;;;;3.30;2.30;;;23.40;1.00;;;;;;4990223;28;20457;-57
2022/09/03 09:15:57;;;;;;;2.93;1.73;;;23.40;1.00;;;;;;4991410;28;21039;-57
2022/09/03 09:18:35;;;;;;;3.27;1.97;;;23.60;1.00;;;;;;4997744;28;20430;-58
2022/09/03 09:21:23;;;;;;;2.50;2.03;;;23.60;1.00;;;;;;5001572;28;20508;-57
2022/09/03 09:23:50;;;;;;;2.20;1.80;;;23.60;1.00;;;;;;4993557;28;20433;-58
2022/09/03 09:26:21;;;;;;;4.00;1.83;;;23.50;1.00;;;;;;4999188;28;20453;-57
2022/09/03 09:28:56;;;;;;;3.17;2.77;;;23.60;1.00;;;;;;4996600;28;20913;-57
2022/09/03 09:31:22;;;;;;;3.20;2.00;;;23.60;1.00;;;;;;4993921;28;20456;-57
2022/09/03 09:33:48;;;;;;;4.93;1.90;;;23.70;1.00;;;;;;4990015;28;20429;-57
2022/09/03 09:36:22;;;;;;;3.27;1.83;;;23.60;1.00;;;;;;5009935;28;20791;-58
2022/09/03 09:38:47;;;;;;;1.77;1.60;;;23.70;1.00;;;;;;4996364;28;20653;-57
2022/09/03 09:41:25;;;;;;;3.67;2.17;;;23.70;1.00;;;;;;5004645;28;20484;-58
2022/09/03 09:44:02;;;;;;;3.27;1.70;;;23.60;1.00;;;;;;4997175;28;20687;-57
2022/09/03 09:46:36;;;;;;;2.37;1.97;;;23.60;1.00;;;;;;4992526;28;20420;-57
2022/09/03 09:49:02;;;;;;;7.73;1.70;;;23.70;1.00;;;;;;5003750;28;20448;-56
2022/09/03 09:51:30;;;;;;;3.60;2.00;;;23.90;1.00;;;;;;5012606;28;20454;-57
2022/09/03 09:54:12;;;;;;;2.13;1.80;;;24.00;1.00;;;;;;5010501;28;20186;-57
2022/09/03 09:56:37;;;;;;;1.77;1.53;;;24.00;1.00;;;;;;5000830;28;20453;-57
2022/09/03 09:59:08;;;;;;;3.57;1.90;;;24.00;1.00;;;;;;4994575;28;20814;-57
2022/09/03 10:01:41;;;;;;;2.07;1.87;;;23.90;1.00;;;;;;5001502;28;20214;-57
2022/09/03 10:04:22;;;;;;;3.50;2.50;;;23.90;1.00;;;;;;5001282;28;20425;-57
2022/09/03 10:06:55;;;;;;;2.37;1.80;;;24.10;1.00;;;;;;5005675;28;20442;-57
2022/09/03 10:09:29;;;;;;;2.40;1.87;;;24.20;1.00;;;;;;5009130;28;20428;-58
2022/09/03 10:12:01;;;;;;;1.73;1.57;;;24.30;1.00;;;;;;5005629;28;20508;-57
2022/09/03 10:14:32;;;;;;;4.87;1.80;;;24.30;1.00;;;;;;5000798;28;20505;-57
2022/09/03 10:17:12;;;;;;;3.40;2.10;;;24.10;1.00;;;;;;4998673;28;20416;-57
2022/09/03 10:22:50;;;;;;;2.57;1.97;;;24.30;1.00;;;;;;4997902;28;20519;-57
2022/09/03 10:25:19;;;;;;;4.10;2.00;;;24.60;1.00;;;;;;4999055;28;20453;-57
2022/09/03 10:27:45;;;;;;;2.23;1.77;;;24.60;1.00;;;;;;5005721;28;21127;-57
2022/09/03 10:30:15;;;;;;;4.20;2.27;;;24.50;1.00;;;;;;4991399;28;20539;-57
2022/09/03 10:32:48;;;;;;;2.60;1.83;;;24.50;1.00;;;;;;4996644;28;20187;-57
2022/09/03 10:35:33;;;;;;;2.07;1.70;;;24.60;1.00;;;;;;4995659;28;20448;-57
2022/09/03 10:38:05;;;;;;;3.10;1.80;;;24.70;1.00;;;;;;5005235;28;20425;-57
2022/09/03 10:40:43;;;;;;;3.17;1.87;;;25.10;1.00;;;;;;5003855;28;20488;-57
2022/09/03 10:43:09;;;;;;;4.13;2.10;;;25.40;1.00;;;;;;4998162;28;20445;-57
2022/09/03 10:45:53;;;;;;;5.20;2.17;;;25.50;1.00;;;;;;4989391;28;20431;-57
2022/09/03 10:48:29;;;;;;;3.83;1.83;;;25.50;1.00;;;;;;4994577;28;20715;-57
2022/09/03 10:51:04;;;;;;;3.83;1.90;;;25.40;1.00;;;;;;4990150;28;20807;-57
2022/09/03 10:54:00;;;;;;;3.63;1.90;;;25.30;1.00;;;;;;4996077;28;20588;-57
2022/09/03 10:56:48;;;;;;;1.90;1.70;;;25.70;1.00;;;;;;4994904;28;20471;-58
2022/09/03 10:59:35;;;;;;;1.80;1.60;;;25.80;1.00;;;;;;5002752;28;20945;-57
2022/09/03 11:02:19;;;;;;;4.60;2.00;;;25.70;1.00;;;;;;4994338;28;20555;-57
2022/09/03 11:05:07;;;;;;;2.20;2.00;;;25.50;1.00;;;;;;5000298;28;20432;-57
2022/09/03 11:07:38;;;;;;;2.23;1.87;;;25.20;1.00;;;;;;4997072;28;20992;-57
2022/09/03 11:10:18;;;;;;;2.13;1.60;;;25.30;1.00;;;;;;5000881;28;20508;-57
2022/09/03 11:12:57;;;;;;;1.80;1.50;;;25.10;1.00;;;;;;4987611;28;20429;-58
2022/09/03 11:15:30;;;;;;;3.27;1.83;;;25.20;1.00;;;;;;4997853;28;20420;-57
2022/09/03 11:18:15;;;;;;;2.47;2.27;;;25.20;1.00;;;;;;5007150;28;20457;-58
2022/09/03 11:20:41;;;;;;;4.50;1.90;;;25.20;1.00;;;;;;4998403;28;20440;-58
2022/09/03 11:23:11;;;;;;;2.77;1.90;;;25.30;1.00;;;;;;4991414;28;20437;-58
2022/09/03 11:25:45;;;;;;;2.00;1.80;;;25.30;1.00;;;;;;4991860;28;20845;-58
2022/09/03 11:28:44;;;;;;;3.07;2.00;;;25.30;1.00;;;;;;4993708;28;20449;-58
2022/09/03 11:31:31;;;;;;;3.33;1.93;;;25.30;1.00;;;;;;4995941;28;20481;-58
2022/09/03 11:34:08;;;;;;;2.03;1.70;;;25.30;1.00;;;;;;4994397;28;20492;-58
2022/09/03 11:36:36;;;;;;;3.80;1.90;;;25.30;1.00;;;;;;4990489;28;20427;-58
2022/09/03 11:39:59;;;;;;;4.80;1.80;;;25.20;1.00;;;;;;4991149;28;20529;-56
2022/09/03 11:42:32;;;;;;;2.10;1.90;;;25.40;1.00;;;;;;4955922;28;20490;-53
2022/09/03 11:45:12;;;;;;;3.53;1.80;;;25.40;1.00;;;;;;4952971;28;20455;-53
2022/09/03 11:47:41;;;;;;;2.70;2.03;;;25.50;1.00;;;;;;4971176;28;20410;-57
2022/09/03 11:50:19;;;;;;;2.17;1.97;;;25.50;1.00;;;;;;4974337;28;20421;-57
2022/09/03 11:52:46;;;;;;;4.87;2.50;;;25.40;1.00;;;;;;4972264;28;20941;-55
2022/09/03 11:55:29;;;;;;;4.60;2.70;;;25.50;1.00;;;;;;4971299;28;20456;-57
2022/09/03 11:57:55;;;;;;;2.93;2.40;;;25.30;1.00;;;;;;4976024;28;20919;-55
2022/09/03 12:00:23;;;;;;;7.10;3.80;;;25.40;1.00;;;;;;4971023;28;20512;-57
2022/09/03 12:03:02;;;;;;;3.60;2.30;;;25.20;1.00;;;;;;4963910;28;20871;-56
2022/09/03 12:05:33;;;;;;;2.27;2.07;;;25.00;1.00;;;;;;4968016;28;20427;-56
2022/09/03 12:08:38;;;;;;;2.00;1.70;;;24.90;1.00;;;;;;4968917;28;20459;-56
2022/09/03 12:11:34;;;;;;;4.30;2.23;;;24.90;1.00;;;;;;4970713;28;20437;-57
2022/09/03 12:14:31;;;;;;;5.17;3.50;;;25.00;1.00;;;;;;4953337;28;20448;-57
2022/09/03 12:17:04;;;;;;;3.80;2.20;;;25.20;1.00;;;;;;4972628;28;20422;-56
2022/09/03 12:19:56;;;;;;;1.97;1.53;;;25.30;1.00;;;;;;4966780;28;20949;-55
2022/09/03 12:22:25;;;;;;;2.90;1.57;;;25.30;1.00;;;;;;4964578;28;20909;-54
2022/09/03 12:24:51;;;;;;;3.80;1.90;;;25.60;1.00;;;;;;4969239;28;20457;-55
2022/09/03 12:27:25;;;;;;;2.60;1.70;;;25.70;1.00;;;;;;4970522;28;20413;-55
2022/09/03 12:29:58;;;;;;;4.57;1.60;;;25.80;1.00;;;;;;4948670;28;20207;-55
2022/09/03 12:32:38;;;;;;;4.70;1.77;;;25.80;1.00;;;;;;4966613;28;20983;-54
2022/09/03 12:35:22;;;;;;;2.10;1.90;;;25.70;1.00;;;;;;4966512;28;20443;-57
2022/09/03 12:37:50;;;;;;;1.90;1.50;;;25.70;1.00;;;;;;4969864;28;20940;-54
2022/09/03 12:40:21;;;;;;;3.20;1.57;;;25.80;1.00;;;;;;4961674;28;20438;-53
2022/09/03 12:42:48;;;;;;;2.33;2.13;;;25.60;1.00;;;;;;4989062;28;20430;-56
2022/09/03 12:45:17;;;;;;;4.60;1.80;;;25.30;1.00;;;;;;4994197;28;20417;-56
2022/09/03 12:47:43;;;;;;;3.00;1.90;;;25.30;1.00;;;;;;5004601;28;20452;-56
2022/09/03 12:50:14;;;;;;;3.93;2.57;;;25.50;1.00;;;;;;4985753;28;20516;-55
2022/09/03 12:52:47;;;;;;;2.33;1.80;;;25.70;1.00;;;;;;5000694;28;20446;-54
2022/09/03 12:55:32;;;;;;;2.13;1.80;;;25.60;1.00;;;;;;4984783;28;20937;-55
2022/09/03 12:58:09;;;;;;;4.97;1.67;;;25.60;1.00;;;;;;4988058;28;20417;-54
2022/09/03 13:00:41;;;;;;;3.13;1.77;;;25.30;1.00;;;;;;4984372;28;21048;-56
2022/09/03 13:03:09;;;;;;;2.43;1.80;;;25.30;1.00;;;;;;4987096;28;20907;-56
2022/09/03 13:05:51;;;;;;;2.00;1.50;;;25.40;1.00;;;;;;4989066;28;20487;-55
2022/09/03 13:08:33;;;;;;;1.77;1.40;;;25.40;1.00;;;;;;4989812;28;20931;-54
2022/09/03 13:11:03;;;;;;;1.93;1.63;;;25.00;1.00;;;;;;4989939;28;20788;-55
2022/09/03 13:13:35;;;;;;;2.93;1.67;;;25.00;1.00;;;;;;4988303;28;20458;-54
2022/09/03 13:16:32;;;;;;;2.90;2.40;;;25.10;1.00;;;;;;4988464;28;20427;-55
2022/09/03 13:19:16;;;;;;;2.30;1.87;;;25.30;1.00;;;;;;4985925;28;20437;-54
2022/09/03 13:22:18;;;;;;;3.20;2.33;;;25.20;1.00;;;;;;4989491;28;20536;-55
2022/09/03 13:24:57;;;;;;;3.93;2.33;;;24.90;1.00;;;;;;4987674;28;20412;-55
2022/09/03 13:27:29;;;;;;;2.77;2.20;;;24.80;1.00;;;;;;4990488;28;20449;-56
2022/09/03 13:30:07;;;;;;;2.50;2.00;;;24.80;1.00;;;;;;4984320;28;20447;-54
2022/09/03 13:32:38;;;;;;;2.93;2.00;;;25.00;1.00;;;;;;4987852;28;20532;-53
2022/09/03 13:35:26;;;;;;;2.57;2.23;;;25.20;1.00;;;;;;4986891;28;20852;-55
2022/09/03 13:37:58;;;;;;;2.30;2.10;;;25.50;1.00;;;;;;4989502;28;20533;-53
2022/09/03 13:40:35;;;;;;;4.40;1.90;;;25.70;1.00;;;;;;4988885;28;20585;-55